createdAt,value
2022-12-24T00:03:09.444Z,19.23
2022-12-24T00:08:14.690Z,18.90
2022-12-24T00:13:18.216Z,17.70
2022-12-24T00:18:21.720Z,18.07
2022-12-24T00:23:26.550Z,18.63
2022-12-24T00:28:29.917Z,19.07
2022-12-24T00:33:33.302Z,20.40
2022-12-24T00:38:38.434Z,18.23
2022-12-24T00:43:41.841Z,17.37
2022-12-24T00:48:45.337Z,17.77
2022-12-24T00:53:50.871Z,16.97
2022-12-24T00:58:55.404Z,17.27
2022-12-24T01:04:12.581Z,16.87
2022-12-24T01:09:17.456Z,18.70
2022-12-24T01:14:21.041Z,17.90
2022-12-24T01:19:24.487Z,17.00
2022-12-24T01:24:29.780Z,17.73
2022-12-24T01:29:33.202Z,16.43
2022-12-24T01:34:36.580Z,17.00
2022-12-24T01:39:41.798Z,15.33
2022-12-24T01:44:49.333Z,18.50
2022-12-24T01:49:55.557Z,16.47
2022-12-24T01:55:04.331Z,16.20
2022-12-24T02:00:11.172Z,16.20
2022-12-24T02:05:20.234Z,16.27
2022-12-24T02:10:25.552Z,15.90
2022-12-24T02:15:36.022Z,15.47
2022-12-24T02:21:07.239Z,13.80
2022-12-24T02:26:28.436Z,13.37
2022-12-24T02:31:40.812Z,13.77
2022-12-24T02:36:48.515Z,15.03
2022-12-24T02:42:09.838Z,12.40
2022-12-24T02:47:16.586Z,12.60
2022-12-24T02:52:31.365Z,14.87
2022-12-24T02:57:46.149Z,15.30
2022-12-24T03:03:07.935Z,14.97
2022-12-24T03:08:18.026Z,15.30
2022-12-24T03:13:23.206Z,15.20
2022-12-24T03:18:30.388Z,13.50
2022-12-24T03:23:35.186Z,13.13
2022-12-24T03:28:40.127Z,13.17
2022-12-24T03:33:45.125Z,12.37
2022-12-24T03:38:48.901Z,13.13
2022-12-24T03:43:52.264Z,13.87
2022-12-24T03:48:57.182Z,12.37
2022-12-24T03:54:00.936Z,13.27
2022-12-24T03:59:04.676Z,14.30
2022-12-24T04:04:09.465Z,13.40
2022-12-24T04:09:13.545Z,14.00
2022-12-24T04:14:16.948Z,13.30
2022-12-24T04:19:22.086Z,14.23
2022-12-24T04:24:25.975Z,12.83
2022-12-24T04:29:29.396Z,13.07
2022-12-24T04:34:34.343Z,12.80
2022-12-24T04:39:37.817Z,13.67
2022-12-24T04:44:41.207Z,13.43
2022-12-24T04:49:45.992Z,12.77
2022-12-24T04:54:49.455Z,12.93
2022-12-24T04:59:53.019Z,12.47
2022-12-24T05:04:57.857Z,13.07
2022-12-24T05:10:01.268Z,13.93
2022-12-24T05:15:05.369Z,13.13
2022-12-24T05:20:10.635Z,13.27
2022-12-24T05:25:31.461Z,12.53
2022-12-24T05:30:35.220Z,12.07
2022-12-24T05:35:40.082Z,14.13
2022-12-24T05:40:43.452Z,14.40
2022-12-24T05:45:46.925Z,13.60
2022-12-24T05:50:52.063Z,13.93
2022-12-24T05:55:55.818Z,13.90
2022-12-24T06:00:59.596Z,13.67
2022-12-24T06:06:07.661Z,13.67
2022-12-24T06:11:14.923Z,13.13
2022-12-24T06:16:21.087Z,13.13
2022-12-24T06:21:26.734Z,14.13
2022-12-24T06:26:30.181Z,15.27
2022-12-24T06:31:33.574Z,16.23
2022-12-24T06:36:38.422Z,17.47
2022-12-24T06:41:41.855Z,16.40
2022-12-24T06:46:45.636Z,16.23
2022-12-24T06:51:50.529Z,14.63
2022-12-24T06:56:57.077Z,14.73
2022-12-24T07:02:01.321Z,16.07
2022-12-24T07:07:06.248Z,15.83
2022-12-24T07:12:09.695Z,16.33
2022-12-24T07:17:13.227Z,15.93
2022-12-24T07:22:18.248Z,16.83
2022-12-24T07:27:21.979Z,15.43
2022-12-24T07:32:25.452Z,15.80
2022-12-24T07:37:30.772Z,15.37
2022-12-24T07:42:34.310Z,14.97
2022-12-24T07:47:38.012Z,15.70
2022-12-24T07:52:42.875Z,15.87
2022-12-24T07:57:46.329Z,15.70
2022-12-24T08:02:50.503Z,14.67
2022-12-24T08:07:55.816Z,14.83
2022-12-24T08:12:59.181Z,14.17
2022-12-24T08:18:03.039Z,15.00
2022-12-24T08:23:08.364Z,15.13
2022-12-24T08:28:12.401Z,13.83
2022-12-24T08:33:16.306Z,14.97
2022-12-24T08:38:21.346Z,14.80
2022-12-24T08:43:25.666Z,13.50
2022-12-24T08:48:29.075Z,13.57
2022-12-24T08:53:34.006Z,13.17
2022-12-24T08:58:37.860Z,13.87
2022-12-24T09:03:41.681Z,12.83
2022-12-24T09:08:46.550Z,12.53
2022-12-24T09:13:49.986Z,12.40
2022-12-24T09:18:53.400Z,12.83
2022-12-24T09:23:58.204Z,12.43
2022-12-24T09:29:01.962Z,12.10
2022-12-24T09:34:05.524Z,11.10
2022-12-24T09:39:10.384Z,9.63
2022-12-24T09:44:29.029Z,8.83
2022-12-24T09:49:39.773Z,7.67
2022-12-24T09:54:49.877Z,9.13
2022-12-24T09:59:53.883Z,9.03
2022-12-24T10:04:57.624Z,8.33
2022-12-24T10:10:12.407Z,9.53
2022-12-24T10:15:25.988Z,9.73
2022-12-24T10:20:47.029Z,8.67
2022-12-24T10:26:00.621Z,8.70
2022-12-24T10:31:08.819Z,9.33
2022-12-24T10:36:18.091Z,9.10
2022-12-24T10:41:23.664Z,8.83
2022-12-24T10:46:36.720Z,8.63
2022-12-24T10:51:46.875Z,9.10
2022-12-24T10:56:56.664Z,8.77
2022-12-24T11:02:01.598Z,8.23
2022-12-24T11:07:08.085Z,7.90
2022-12-24T11:12:23.455Z,8.27
2022-12-24T11:17:27.396Z,7.37
2022-12-24T11:22:33.852Z,7.63
2022-12-24T11:27:47.432Z,7.27
2022-12-24T11:33:13.313Z,6.67
2022-12-24T11:38:22.576Z,7.20
2022-12-24T11:43:44.470Z,8.67
2022-12-24T11:48:49.694Z,7.23
2022-12-24T11:54:02.477Z,7.97
2022-12-24T11:59:17.531Z,7.40
2022-12-24T12:04:23.785Z,8.03
2022-12-24T12:09:32.902Z,7.37
2022-12-24T12:14:44.090Z,6.70
2022-12-24T12:19:51.579Z,6.93
2022-12-24T12:24:57.158Z,6.93
2022-12-24T12:30:05.650Z,5.87
2022-12-24T12:35:23.385Z,6.47
2022-12-24T12:40:40.256Z,6.30
2022-12-24T12:45:54.689Z,5.43
2022-12-24T12:51:03.967Z,5.57
2022-12-24T12:56:20.870Z,5.07
2022-12-24T13:01:33.300Z,5.37
2022-12-24T13:07:09.097Z,5.20
2022-12-24T13:12:34.941Z,5.77
2022-12-24T13:18:19.483Z,5.53
2022-12-24T13:23:26.344Z,6.03
2022-12-24T13:28:35.853Z,6.30
2022-12-24T13:33:49.913Z,5.97
2022-12-24T13:38:57.338Z,6.77
2022-12-24T13:44:04.982Z,6.27
2022-12-24T13:49:13.964Z,6.13
2022-12-24T13:54:28.668Z,6.23
2022-12-24T13:59:39.292Z,6.27
2022-12-24T14:04:43.177Z,6.40
2022-12-24T14:09:52.425Z,6.10
2022-12-24T14:14:56.178Z,5.83
2022-12-24T14:20:02.036Z,5.43
2022-12-24T14:25:16.694Z,5.70
2022-12-24T14:30:22.861Z,6.10
2022-12-24T14:35:29.064Z,5.60
2022-12-24T14:40:39.288Z,5.00
2022-12-24T14:45:49.674Z,5.20
2022-12-24T14:51:10.939Z,5.90
2022-12-24T14:56:17.989Z,5.67
2022-12-24T15:01:24.174Z,6.67
2022-12-24T15:06:28.625Z,6.57
2022-12-24T15:11:33.823Z,6.53
2022-12-24T15:16:38.211Z,6.50
2022-12-24T15:21:44.380Z,6.30
2022-12-24T15:26:49.288Z,6.60
2022-12-24T15:31:57.778Z,7.03
2022-12-24T15:37:07.552Z,6.50
2022-12-24T15:42:22.617Z,6.57
2022-12-24T15:47:37.733Z,6.17
2022-12-24T15:52:43.162Z,6.40
2022-12-24T15:57:48.789Z,6.20
2022-12-24T16:02:52.312Z,6.13
2022-12-24T16:08:09.914Z,5.50
2022-12-24T16:13:19.027Z,5.33
2022-12-24T16:18:27.079Z,5.00
2022-12-24T16:23:38.416Z,5.27
2022-12-24T16:28:43.812Z,5.27
2022-12-24T16:33:48.233Z,4.70
2022-12-24T16:39:08.993Z,5.07
2022-12-24T16:44:13.833Z,4.73
2022-12-24T16:49:18.774Z,4.97
2022-12-24T16:54:22.573Z,5.20
2022-12-24T16:59:27.732Z,5.60
2022-12-24T17:04:35.418Z,5.07
2022-12-24T17:09:39.237Z,5.70
2022-12-24T17:14:45.573Z,5.37
2022-12-24T17:19:49.081Z,5.97
2022-12-24T17:24:52.845Z,7.30
2022-12-24T17:29:57.768Z,7.10
2022-12-24T17:35:02.402Z,7.30
2022-12-24T17:40:08.132Z,6.93
2022-12-24T17:45:13.191Z,6.73
2022-12-24T17:50:16.768Z,6.10
2022-12-24T17:55:20.533Z,5.77
2022-12-24T18:00:32.817Z,5.83
2022-12-24T18:05:37.042Z,5.87
2022-12-24T18:10:40.704Z,6.27
2022-12-24T18:15:45.731Z,6.30
2022-12-24T18:20:49.252Z,6.70
2022-12-24T18:25:52.691Z,6.30
2022-12-24T18:31:00.597Z,6.70
2022-12-24T18:36:04.160Z,7.17
2022-12-24T18:41:09.416Z,6.37
2022-12-24T18:46:16.663Z,6.37
2022-12-24T18:51:23.624Z,6.57
2022-12-24T18:56:28.488Z,6.43
2022-12-24T19:01:36.430Z,6.23
2022-12-24T19:06:40.268Z,6.77
2022-12-24T19:11:43.840Z,6.13
2022-12-24T19:16:48.838Z,6.63
2022-12-24T19:21:52.686Z,6.40
2022-12-24T19:26:56.399Z,6.50
2022-12-24T19:32:04.067Z,6.00
2022-12-24T19:37:07.577Z,6.63
2022-12-24T19:42:11.017Z,6.20
2022-12-24T19:47:15.852Z,6.03
2022-12-24T19:52:19.577Z,6.70
2022-12-24T19:57:23.064Z,7.80
2022-12-24T20:02:28.217Z,8.80
2022-12-24T20:07:31.865Z,8.43
2022-12-24T20:12:35.305Z,8.90
2022-12-24T20:17:40.498Z,8.53
2022-12-24T20:22:43.880Z,9.30
2022-12-24T20:27:47.371Z,9.53
2022-12-24T20:32:55.790Z,10.17
2022-12-24T20:37:59.665Z,9.23
2022-12-24T20:43:03.129Z,9.67
2022-12-24T20:48:08.287Z,10.17
2022-12-24T20:53:12.105Z,9.93
2022-12-24T20:58:18.073Z,10.27
2022-12-24T21:03:23.323Z,10.77
2022-12-24T21:08:26.820Z,10.83
2022-12-24T21:13:30.605Z,10.50
2022-12-24T21:18:35.582Z,10.93
2022-12-24T21:23:39.241Z,11.27
2022-12-24T21:28:43.947Z,12.40
2022-12-24T21:33:49.287Z,11.97
2022-12-24T21:38:52.777Z,12.50
2022-12-24T21:43:56.175Z,11.80
2022-12-24T21:49:18.361Z,11.40
2022-12-24T21:54:27.378Z,11.33
2022-12-24T21:59:31.265Z,12.30
2022-12-24T22:04:36.642Z,12.00
2022-12-24T22:09:58.242Z,12.27
2022-12-24T22:15:02.149Z,11.73
2022-12-24T22:20:10.303Z,12.43
2022-12-24T22:25:14.039Z,12.20
2022-12-24T22:30:17.860Z,12.03
2022-12-24T22:35:23.006Z,12.77
2022-12-24T22:40:28.098Z,12.23
2022-12-24T22:45:31.673Z,11.60
2022-12-24T22:50:36.812Z,13.23
2022-12-24T22:55:40.313Z,13.20
2022-12-24T23:00:46.379Z,12.83
2022-12-24T23:05:58.762Z,11.73
2022-12-24T23:11:07.366Z,12.87
2022-12-24T23:16:11.144Z,12.10
2022-12-24T23:21:16.160Z,12.40
2022-12-24T23:26:22.596Z,11.87
2022-12-24T23:31:27.501Z,12.47
2022-12-24T23:36:32.416Z,11.83
2022-12-24T23:41:35.846Z,12.00
2022-12-24T23:46:39.406Z,12.40
2022-12-24T23:51:44.284Z,11.67
2022-12-24T23:56:48.152Z,12.60
